Brownsburg, Indiana
Current Conditions -  °F | °C
As of 10:53 PM on Sunday 23 Nov 2014 (Local Time) from KEYE Reporting Station
Light Rain Light Rain  
Wind Chill: 54°   Ceiling: 800
Heat Index: 54°   Visibility: 10mi
Dew Point: 54°   Wind: 13mph
Humidity: 100%   Direction: 180°S
Pressure: 29.16"   Gusts: 24mph
Location:  39.84°N, 86.4°W
Report Text: KEYE 240353Z AUTO 18011G21KT 10SM -RA BKN008 OVC015 12/12 A2916 RMK AO2 CIG 006V012 SLP873 P0011 T01220122 $
Loading
Personal Weather Stations






























Interactive Weather Map New forecast layout! Learn more

10-Day Weather Forecast

Advertisements
Track Severe Weather on mobile